Time;durP1;ratioP1;P1;durP2;ratioP2;P2;SDS_P1;SDS_P2;PMS_P1;PMS_P2;Temp;Humidity;BMP_temperature;BMP_pressure;BME280_temperature;BME280_humidity;BME280_pressure;Samples;Min_cycle;Max_cycle;Signal;HPM_P1;HPM_P2
2021/07/14 00:02:22;;;;;;;17.02;11.57;;;;;;;24.46;97.74;100256.38;4999903;28;20025;-79
2021/07/14 00:04:47;;;;;;;21.02;11.18;;;;;;;24.44;98.09;100243.06;5020807;28;20540;-79
2021/07/14 00:07:13;;;;;;;17.55;11.93;;;;;;;24.44;97.80;100243.06;5014981;28;20038;-79
2021/07/14 00:09:38;;;;;;;20.13;12.40;;;;;;;24.41;98.05;100238.47;5010458;28;20096;-79
2021/07/14 00:12:07;;;;;;;14.50;11.48;;;;;;;24.43;97.72;100243.53;5016726;28;20413;-79
2021/07/14 00:22:26;;;;;;;16.73;11.70;;;;;;;24.45;98.43;100235.56;5021299;28;20126;-79
2021/07/14 00:24:52;;;;;;;16.40;11.82;;;;;;;24.34;98.75;100227.75;5014719;28;20069;-79
2021/07/14 00:27:19;;;;;;;14.18;11.27;;;;;;;24.41;98.50;100227.44;4997984;28;20044;-79
2021/07/14 00:29:51;;;;;;;19.08;12.30;;;;;;;24.36;98.32;100216.28;5013657;28;20383;-79
2021/07/14 00:32:17;;;;;;;16.70;11.48;;;;;;;24.15;99.64;100215.97;5015689;28;20041;-79
2021/07/14 00:34:43;;;;;;;15.40;10.90;;;;;;;24.16;99.50;100219.47;5008595;28;20048;-79
2021/07/14 00:37:09;;;;;;;14.70;11.63;;;;;;;24.07;100.00;100209.25;5015355;28;20065;-79
2021/07/14 00:39:35;;;;;;;15.90;12.48;;;;;;;24.06;100.00;100201.47;5004070;28;20026;-79
2021/07/14 00:42:00;;;;;;;16.30;11.70;;;;;;;24.08;99.94;100199.75;5020355;28;20042;-79
2021/07/14 00:44:26;;;;;;;20.67;10.70;;;;;;;24.10;100.00;100193.78;5015464;28;20025;-79
2021/07/14 00:46:53;;;;;;;15.60;11.30;;;;;;;24.03;100.00;100185.84;5013275;28;20038;-79
2021/07/14 00:49:18;;;;;;;13.60;10.60;;;;;;;24.08;100.00;100185.22;5009836;28;20038;-79
2021/07/14 00:51:46;;;;;;;16.95;10.60;;;;;;;24.14;100.00;100186.91;5015194;28;20121;-79
2021/07/14 00:54:11;;;;;;;13.52;10.93;;;;;;;24.20;99.70;100189.06;5015547;28;20430;-79
2021/07/14 00:56:38;;;;;;;15.57;10.57;;;;;;;24.08;100.00;100196.22;5013672;28;20060;-79
2021/07/14 00:59:03;;;;;;;14.60;10.10;;;;;;;24.01;100.00;100183.53;5019487;28;20018;-79
2021/07/14 01:01:31;;;;;;;13.68;10.52;;;;;;;23.97;100.00;100184.88;5007820;28;20034;-79
2021/07/14 01:04:02;;;;;;;13.80;10.30;;;;;;;24.00;100.00;100186.75;5008106;28;20436;-79
2021/07/14 01:06:56;;;;;;;12.15;10.10;;;;;;;23.83;100.00;100190.97;4997929;28;20092;-79
2021/07/14 01:09:52;;;;;;;12.13;9.80;;;;;;;23.84;100.00;100196.03;4997121;28;20058;-79
2021/07/14 01:12:55;;;;;;;14.65;10.23;;;;;;;23.77;100.00;100192.81;5014051;28;20122;-79
2021/07/14 01:15:22;;;;;;;14.93;10.35;;;;;;;23.86;100.00;100190.84;5001451;28;20037;-79
2021/07/14 01:18:27;;;;;;;14.27;10.50;;;;;;;23.91;100.00;100197.72;5042219;28;20033;-79
2021/07/14 01:21:16;;;;;;;14.18;10.40;;;;;;;23.97;100.00;100196.66;4995959;28;20128;-79
2021/07/14 01:24:07;;;;;;;16.33;9.40;;;;;;;24.01;99.84;100191.00;5002219;28;20384;-79
2021/07/14 01:27:23;;;;;;;11.80;9.63;;;;;;;23.84;100.00;100184.25;5020272;28;20041;-79
2021/07/14 01:29:50;;;;;;;13.13;10.25;;;;;;;23.93;100.00;100187.03;4981833;28;20141;-79
2021/07/14 01:32:18;;;;;;;14.88;10.40;;;;;;;24.03;99.63;100183.88;5025034;28;20042;-79
2021/07/14 01:34:47;;;;;;;13.43;10.25;;;;;;;23.99;100.00;100180.47;5024565;28;20041;-79
2021/07/14 01:37:17;;;;;;;15.48;10.80;;;;;;;23.99;100.00;100174.19;5020724;28;20168;-79
2021/07/14 01:39:45;;;;;;;18.63;10.18;;;;;;;23.98;100.00;100178.19;5022436;28;20025;-79
2021/07/14 01:42:13;;;;;;;13.98;10.07;;;;;;;24.08;99.10;100185.22;5034613;28;20095;-79
2021/07/14 01:44:39;;;;;;;15.43;10.00;;;;;;;24.08;99.15;100188.75;5021427;28;20054;-79
2021/07/14 01:47:04;;;;;;;17.08;10.25;;;;;;;23.70;100.00;100193.09;4998644;28;20245;-79
2021/07/14 01:49:33;;;;;;;12.93;9.05;;;;;;;23.67;100.00;100186.53;5022993;28;20033;-79
2021/07/14 01:52:05;;;;;;;17.10;10.18;;;;;;;23.51;100.00;100180.53;5026534;28;20052;-79
2021/07/14 01:54:31;;;;;;;14.95;10.18;;;;;;;23.66;100.00;100179.50;5003763;28;20042;-79
2021/07/14 01:57:00;;;;;;;14.10;9.95;;;;;;;23.75;100.00;100176.00;5002384;28;20045;-79
2021/07/14 01:59:28;;;;;;;12.75;10.15;;;;;;;23.74;100.00;100169.72;5028021;28;20467;-79
2021/07/14 02:01:55;;;;;;;12.32;9.82;;;;;;;23.81;100.00;100174.94;5011784;28;20030;-79
2021/07/14 02:04:30;;;;;;;12.88;11.00;;;;;;;23.88;100.00;100174.66;5021549;28;20034;-79
2021/07/14 02:07:10;;;;;;;14.40;10.48;;;;;;;23.75;100.00;100173.25;5024649;28;20055;-79
2021/07/14 02:09:37;;;;;;;12.93;10.07;;;;;;;23.68;100.00;100170.78;5003893;28;20034;-79
2021/07/14 02:14:47;;;;;;;15.40;10.80;;;;;;;23.60;100.00;100175.81;4999198;28;20111;-74
2021/07/14 02:17:16;;;;;;;15.57;10.35;;;;;;;23.68;100.00;100165.28;5005922;28;20053;-74
2021/07/14 02:19:50;;;;;;;18.60;11.27;;;;;;;23.73;100.00;100164.69;4998237;28;20115;-74
2021/07/14 02:22:16;;;;;;;13.48;10.88;;;;;;;23.77;100.00;100166.06;5004780;28;20675;-74
2021/07/14 02:24:42;;;;;;;15.80;10.80;;;;;;;23.70;100.00;100158.13;5005930;28;20025;-76
2021/07/14 02:27:10;;;;;;;13.73;10.43;;;;;;;23.75;100.00;100159.50;5006867;28;20540;-76
2021/07/14 02:29:37;;;;;;;13.98;10.00;;;;;;;23.72;100.00;100171.41;4974189;28;20037;-76
2021/07/14 02:32:04;;;;;;;12.95;10.68;;;;;;;23.68;100.00;100162.53;5007469;28;20042;-76
2021/07/14 02:34:30;;;;;;;12.77;10.27;;;;;;;23.65;100.00;100161.47;4977340;28;20545;-76
2021/07/14 02:36:57;;;;;;;15.32;10.55;;;;;;;23.60;100.00;100155.78;5020601;28;20044;-76
2021/07/14 02:39:24;;;;;;;14.05;10.32;;;;;;;23.52;100.00;100149.81;4984742;28;20426;-75
2021/07/14 02:41:55;;;;;;;12.70;10.30;;;;;;;23.55;100.00;100146.16;5011775;28;20109;-76
2021/07/14 02:44:25;;;;;;;13.73;10.50;;;;;;;23.60;100.00;100151.06;5004625;28;20034;-76
2021/07/14 02:46:55;;;;;;;23.13;10.45;;;;;;;23.64;100.00;100145.41;5018517;28;20060;-76
2021/07/14 02:49:27;;;;;;;14.45;10.23;;;;;;;23.58;100.00;100138.97;4996846;28;20442;-75
2021/07/14 02:51:54;;;;;;;19.40;10.63;;;;;;;23.68;100.00;100137.78;4986881;28;20049;-75
2021/07/14 02:54:23;;;;;;;14.50;11.27;;;;;;;23.80;100.00;100136.88;4989830;28;20034;-76
2021/07/14 02:57:00;;;;;;;18.00;12.20;;;;;;;23.91;99.07;100148.19;4975935;28;20038;-76
2021/07/14 02:59:29;;;;;;;12.93;10.60;;;;;;;23.71;100.00;100139.63;5005011;28;20482;-76
2021/07/14 03:01:58;;;;;;;16.20;12.45;;;;;;;23.67;100.00;100139.00;4982042;28;20569;-76
2021/07/14 03:04:32;;;;;;;18.65;13.18;;;;;;;23.61;100.00;100133.34;4992176;28;20038;-76
2021/07/14 03:07:02;;;;;;;20.55;13.32;;;;;;;23.65;100.00;100124.94;4993151;28;20035;-76
2021/07/14 03:09:37;;;;;;;20.58;14.15;;;;;;;23.58;100.00;100138.97;4986561;28;20026;-76
2021/07/14 03:12:05;;;;;;;20.63;13.88;;;;;;;23.45;100.00;100132.84;5010156;28;20048;-76
2021/07/14 03:14:31;;;;;;;24.35;14.15;;;;;;;23.37;100.00;100135.13;5010558;28;20061;-76
2021/07/14 03:16:57;;;;;;;22.08;13.57;;;;;;;23.35;100.00;100142.28;5001308;28;20037;-78
2021/07/14 03:19:24;;;;;;;17.70;13.57;;;;;;;23.39;100.00;100140.94;5007222;28;20030;-76
2021/07/14 03:21:50;;;;;;;20.92;14.05;;;;;;;23.47;100.00;100139.44;4987056;28;20047;-76
2021/07/14 03:24:16;;;;;;;21.80;14.07;;;;;;;23.51;100.00;100147.53;5010705;28;20034;-76
2021/07/14 03:26:42;;;;;;;21.50;13.45;;;;;;;23.52;100.00;100140.81;5000104;28;20037;-76
2021/07/14 03:29:10;;;;;;;22.98;13.82;;;;;;;23.52;100.00;100141.56;4995290;28;20030;-76
2021/07/14 03:31:36;;;;;;;19.58;13.38;;;;;;;23.49;100.00;100153.50;5014349;28;20034;-76
2021/07/14 03:34:02;;;;;;;24.85;15.32;;;;;;;23.56;100.00;100180.69;5002789;28;20165;-76
2021/07/14 03:36:29;;;;;;;20.00;12.35;;;;;;;23.49;100.00;100182.97;5009349;28;20109;-76
2021/07/14 03:38:56;;;;;;;21.33;12.73;;;;;;;23.52;100.00;100187.56;4989996;28;20026;-76
2021/07/14 03:41:22;;;;;;;18.63;14.15;;;;;;;23.59;100.00;100185.28;4989517;28;20044;-76
2021/07/14 03:43:47;;;;;;;21.50;13.52;;;;;;;23.63;100.00;100193.41;5002278;28;20450;-75
2021/07/14 03:46:13;;;;;;;19.58;12.73;;;;;;;23.61;100.00;100201.34;5000896;28;20084;-76
2021/07/14 03:48:39;;;;;;;19.00;12.90;;;;;;;23.63;100.00;100191.41;5017128;28;20455;-76
2021/07/14 03:51:06;;;;;;;19.70;12.18;;;;;;;23.68;100.00;100204.56;4997399;28;20121;-76
2021/07/14 03:53:32;;;;;;;19.35;12.27;;;;;;;23.66;100.00;100195.22;4988167;28;20156;-76
2021/07/14 03:55:58;;;;;;;18.83;11.95;;;;;;;23.82;99.41;100203.22;5007953;28;20117;-76
2021/07/14 03:58:25;;;;;;;22.38;13.00;;;;;;;23.71;100.00;100197.38;4997229;28;20038;-76
2021/07/14 04:00:52;;;;;;;17.98;12.73;;;;;;;23.76;99.87;100202.28;4997390;28;20030;-76
2021/07/14 04:03:24;;;;;;;21.05;12.63;;;;;;;23.69;100.00;100199.84;5003974;28;20052;-76
2021/07/14 04:05:59;;;;;;;18.88;12.68;;;;;;;23.55;100.00;100200.41;4992493;28;20038;-77
2021/07/14 04:08:30;;;;;;;16.70;13.15;;;;;;;23.63;100.00;100204.41;5013763;28;20034;-76
2021/07/14 04:10:57;;;;;;;20.33;13.07;;;;;;;23.62;100.00;100213.84;4968362;28;20034;-76
2021/07/14 04:13:22;;;;;;;24.33;14.43;;;;;;;23.45;100.00;100212.59;4975363;28;20711;-76
2021/07/14 04:15:47;;;;;;;19.65;13.43;;;;;;;23.40;100.00;100213.19;4983879;28;20018;-76
2021/07/14 04:18:13;;;;;;;24.15;12.57;;;;;;;23.35;100.00;100222.00;5003257;28;20074;-76
2021/07/14 04:20:40;;;;;;;17.38;13.90;;;;;;;23.57;100.00;100214.47;4980976;28;20159;-77
2021/07/14 04:23:06;;;;;;;19.25;13.35;;;;;;;23.72;100.00;100212.66;4992373;28;20026;-76
2021/07/14 04:25:31;;;;;;;19.73;13.15;;;;;;;23.54;100.00;100209.88;4996789;28;20486;-76
2021/07/14 04:27:56;;;;;;;18.27;13.45;;;;;;;23.52;100.00;100213.06;4974892;28;20030;-76
2021/07/14 04:30:22;;;;;;;20.88;13.82;;;;;;;23.52;100.00;100215.81;4998470;28;20033;-77
2021/07/14 04:32:47;;;;;;;19.83;12.73;;;;;;;23.53;100.00;100214.59;5005465;28;20124;-77
2021/07/14 04:35:13;;;;;;;20.17;13.68;;;;;;;23.49;100.00;100213.97;5012935;28;20042;-76
2021/07/14 04:37:39;;;;;;;20.45;13.52;;;;;;;23.62;100.00;100228.38;4974591;28;20047;-77
2021/07/14 04:40:06;;;;;;;20.42;13.23;;;;;;;23.67;100.00;100229.78;4961252;28;20035;-77
2021/07/14 04:42:32;;;;;;;23.77;13.45;;;;;;;23.78;100.00;100232.84;4998623;28;20122;-77
2021/07/14 04:44:57;;;;;;;18.50;14.00;;;;;;;23.70;100.00;100226.88;4995059;28;20117;-76
2021/07/14 04:47:24;;;;;;;20.70;13.85;;;;;;;23.76;100.00;100232.53;4986566;28;20046;-77
2021/07/14 04:49:49;;;;;;;20.70;14.27;;;;;;;23.88;100.00;100223.41;4973220;28;20026;-78
2021/07/14 04:52:15;;;;;;;21.05;13.98;;;;;;;23.72;100.00;100227.19;4986582;28;20042;-76
2021/07/14 04:54:41;;;;;;;22.65;14.10;;;;;;;23.68;100.00;100223.81;4981646;28;20038;-77
2021/07/14 04:57:10;;;;;;;23.67;14.70;;;;;;;23.60;100.00;100225.31;4986352;28;20049;-77
2021/07/14 04:59:36;;;;;;;22.60;15.52;;;;;;;23.79;100.00;100228.91;5002941;28;20052;-77
2021/07/14 05:02:06;;;;;;;20.38;14.45;;;;;;;23.77;100.00;100221.06;4976476;28;20302;-78
2021/07/14 05:04:35;;;;;;;20.33;14.48;;;;;;;23.72;100.00;100221.69;4992940;28;20030;-78
2021/07/14 05:07:01;;;;;;;23.77;15.65;;;;;;;23.62;100.00;100220.13;4984266;28;20037;-78
2021/07/14 05:09:27;;;;;;;20.13;14.38;;;;;;;23.57;100.00;100214.47;4980647;28;21067;-78
2021/07/14 05:11:52;;;;;;;21.60;14.75;;;;;;;23.58;100.00;100213.22;4990476;28;20038;-78
2021/07/14 05:14:18;;;;;;;21.90;14.90;;;;;;;23.50;100.00;100203.75;4981200;28;20490;-78
2021/07/14 05:16:44;;;;;;;21.75;14.93;;;;;;;23.47;100.00;100199.16;4989422;28;20385;-77
2021/07/14 05:19:09;;;;;;;20.25;14.77;;;;;;;23.63;100.00;100209.91;4995165;28;20035;-77
2021/07/14 05:21:35;;;;;;;22.55;14.70;;;;;;;23.56;100.00;100212.91;4989479;28;20032;-77
2021/07/14 05:24:00;;;;;;;23.15;14.95;;;;;;;23.54;100.00;100209.88;4963438;28;20136;-77
2021/07/14 05:26:26;;;;;;;22.63;15.55;;;;;;;23.58;100.00;100216.75;4982849;28;20471;-77
2021/07/14 05:28:52;;;;;;;27.05;16.13;;;;;;;23.58;100.00;100205.75;4998730;28;20037;-77
2021/07/14 05:31:18;;;;;;;26.88;16.00;;;;;;;23.62;100.00;100216.59;4979894;28;20034;-77
2021/07/14 05:33:44;;;;;;;27.15;15.60;;;;;;;23.53;100.00;100209.09;4993560;28;20080;-77
2021/07/14 05:36:11;;;;;;;24.38;14.57;;;;;;;23.53;100.00;100219.34;4989296;28;20481;-77
2021/07/14 05:38:38;;;;;;;22.83;15.38;;;;;;;23.64;100.00;100222.41;4990053;28;20120;-77
2021/07/14 05:41:03;;;;;;;25.67;15.70;;;;;;;23.60;100.00;100221.78;4974051;28;20049;-78
2021/07/14 05:43:29;;;;;;;23.63;15.32;;;;;;;23.61;100.00;100217.84;5011327;28;20030;-79
2021/07/14 05:45:55;;;;;;;22.80;14.88;;;;;;;23.62;100.00;100216.59;4978334;28;20514;-77
2021/07/14 05:48:21;;;;;;;20.48;14.70;;;;;;;23.65;100.00;100207.47;4999071;28;20058;-77
2021/07/14 05:50:46;;;;;;;24.23;15.52;;;;;;;23.64;100.00;100205.91;5000982;28;20034;-77
2021/07/14 05:53:12;;;;;;;23.95;15.18;;;;;;;23.69;100.00;100200.56;5005949;28;20037;-77
2021/07/14 05:55:37;;;;;;;22.98;15.43;;;;;;;23.65;100.00;100190.97;5001622;28;20038;-78
2021/07/14 05:58:04;;;;;;;26.58;16.45;;;;;;;23.68;100.00;100176.28;5018410;28;20041;-78
2021/07/14 06:00:29;;;;;;;23.05;15.68;;;;;;;23.63;100.00;100174.16;4999688;28;20674;-78
2021/07/14 06:02:56;;;;;;;22.15;16.40;;;;;;;23.67;100.00;100174.75;4991719;28;20035;-78
2021/07/14 06:05:22;;;;;;;23.02;16.45;;;;;;;23.68;100.00;100187.28;4996373;28;20060;-78
2021/07/14 06:07:47;;;;;;;20.38;15.63;;;;;;;23.67;100.00;100196.78;4998433;28;20050;-78
2021/07/14 06:10:16;;;;;;;21.23;15.63;;;;;;;23.60;100.00;100214.31;4992180;28;20034;-77
2021/07/14 06:12:41;;;;;;;28.70;17.73;;;;;;;23.51;100.00;100233.53;5002464;28;20528;-77
2021/07/14 06:15:07;;;;;;;35.35;18.50;;;;;;;23.48;100.00;100206.19;4980804;28;20065;-76
2021/07/14 06:17:33;;;;;;;33.70;17.30;;;;;;;23.70;100.00;100155.34;4999682;28;20026;-77
2021/07/14 06:19:59;;;;;;;30.25;17.20;;;;;;;23.61;100.00;100158.09;5003591;28;20061;-78
2021/07/14 06:22:24;;;;;;;23.40;17.60;;;;;;;23.51;100.00;100150.28;4984183;28;20061;-77
2021/07/14 06:24:50;;;;;;;23.88;16.85;;;;;;;23.57;100.00;100151.22;4992723;28;20408;-77
2021/07/14 06:27:16;;;;;;;24.33;17.98;;;;;;;23.75;100.00;100151.25;4993470;28;20034;-78
2021/07/14 06:29:41;;;;;;;27.63;18.55;;;;;;;23.63;100.00;100146.66;4992223;28;20465;-77
2021/07/14 06:32:07;;;;;;;28.38;18.77;;;;;;;23.60;100.00;100153.03;4990642;28;20088;-77
2021/07/14 06:34:33;;;;;;;27.17;18.42;;;;;;;23.52;100.00;100151.81;4988192;28;20389;-77
2021/07/14 06:36:58;;;;;;;28.60;18.15;;;;;;;23.45;100.00;100141.09;4990987;28;20034;-77
2021/07/14 06:39:24;;;;;;;25.90;18.00;;;;;;;23.52;100.00;100130.56;4979098;28;20029;-77
2021/07/14 06:41:50;;;;;;;29.52;19.13;;;;;;;23.53;100.00;100132.13;4983574;28;20446;-77
2021/07/14 06:44:16;;;;;;;25.33;18.63;;;;;;;23.67;100.00;100137.03;4981798;28;20030;-76
2021/07/14 06:46:41;;;;;;;27.50;17.83;;;;;;;23.72;100.00;100136.41;4970974;28;20057;-77
2021/07/14 06:49:07;;;;;;;30.67;18.80;;;;;;;23.81;100.00;100132.91;4995748;28;20041;-78
2021/07/14 06:51:32;;;;;;;28.67;17.58;;;;;;;23.82;100.00;100132.47;5002935;28;20394;-77
2021/07/14 06:53:57;;;;;;;28.65;20.45;;;;;;;23.83;100.00;100138.69;4997170;28;20030;-77
2021/07/14 06:56:23;;;;;;;29.63;19.73;;;;;;;23.93;100.00;100132.75;4998569;28;20104;-77
2021/07/14 06:58:48;;;;;;;28.92;20.27;;;;;;;23.92;100.00;100117.50;5016160;28;20073;-76
2021/07/14 07:01:15;;;;;;;28.02;19.35;;;;;;;23.84;100.00;100119.00;4986100;28;20034;-76
2021/07/14 07:03:41;;;;;;;35.88;21.10;;;;;;;23.90;100.00;100113.66;4984074;28;20038;-76
2021/07/14 07:06:06;;;;;;;29.23;19.90;;;;;;;23.89;100.00;100123.13;4987994;28;20034;-76
2021/07/14 07:08:33;;;;;;;33.00;21.10;;;;;;;23.96;100.00;100123.56;4989011;28;20479;-77
2021/07/14 07:10:58;;;;;;;31.42;21.15;;;;;;;24.01;100.00;100127.72;4987486;28;20383;-77
2021/07/14 07:13:24;;;;;;;34.53;21.48;;;;;;;23.90;100.00;100124.66;4986661;28;20041;-77
2021/07/14 07:15:49;;;;;;;31.77;21.27;;;;;;;24.12;100.00;100128.03;4986825;28;20038;-77
2021/07/14 07:18:16;;;;;;;33.72;21.20;;;;;;;24.03;100.00;100125.28;4978978;28;20030;-77
2021/07/14 07:20:42;;;;;;;45.60;22.48;;;;;;;24.02;100.00;100124.53;4987743;28;20419;-77
2021/07/14 07:23:08;;;;;;;30.60;21.17;;;;;;;24.05;100.00;100123.63;4989649;28;20027;-77
2021/07/14 07:25:34;;;;;;;36.60;21.88;;;;;;;24.20;100.00;100126.50;4976920;28;20490;-77
2021/07/14 07:28:03;;;;;;;36.30;21.95;;;;;;;24.34;100.00;100131.38;4990156;28;20125;-77
2021/07/14 07:30:29;;;;;;;33.05;20.83;;;;;;;24.33;100.00;100134.59;4985352;28;20100;-77
2021/07/14 07:32:55;;;;;;;33.17;20.98;;;;;;;24.51;100.00;100135.34;4980946;28;20042;-77
2021/07/14 07:35:20;;;;;;;34.47;21.35;;;;;;;24.51;100.00;100135.34;4976337;28;20050;-77
2021/07/14 07:37:46;;;;;;;29.17;20.77;;;;;;;24.43;100.00;100138.88;4971795;28;20045;-76
2021/07/14 07:40:32;;;;;;;34.08;20.63;;;;;;;24.57;100.00;100138.22;4971787;28;20038;-77
2021/07/14 07:42:58;;;;;;;29.88;20.77;;;;;;;24.64;100.00;100137.91;4913278;29;20048;-77
2021/07/14 07:45:23;;;;;;;31.58;21.73;;;;;;;24.66;100.00;100132.72;4916010;29;20066;-77
2021/07/14 07:47:49;;;;;;;35.85;22.65;;;;;;;24.75;100.00;100130.72;4912382;29;20052;-78
2021/07/14 07:50:14;;;;;;;33.75;22.08;;;;;;;24.87;100.00;100132.50;4914988;29;20040;-77
2021/07/14 07:52:40;;;;;;;35.30;22.48;;;;;;;24.95;100.00;100130.94;4935557;29;20114;-77
2021/07/14 07:55:11;;;;;;;32.90;21.70;;;;;;;24.92;100.00;100128.34;4913210;29;20047;-77
2021/07/14 07:57:38;;;;;;;33.08;21.85;;;;;;;25.00;100.00;100126.78;4908848;29;20105;-77
2021/07/14 08:00:15;;;;;;;28.95;21.02;;;;;;;24.95;100.00;100122.66;4917243;29;20044;-77
2021/07/14 08:02:41;;;;;;;33.47;20.95;;;;;;;24.92;100.00;100122.84;4912865;29;20047;-77
2021/07/14 08:05:08;;;;;;;35.03;22.15;;;;;;;24.90;100.00;100128.06;4915024;29;20024;-77
2021/07/14 08:07:33;;;;;;;32.05;21.20;;;;;;;24.94;100.00;100126.66;4914391;29;20182;-77
2021/07/14 08:09:59;;;;;;;33.25;22.15;;;;;;;24.93;100.00;100136.16;4912159;29;20044;-77
2021/07/14 08:12:24;;;;;;;32.95;21.25;;;;;;;25.16;100.00;100144.94;4955352;23;20137;-77
2021/07/14 08:14:50;;;;;;;28.45;19.52;;;;;;;25.25;100.00;100142.13;4996099;28;20048;-76
2021/07/14 08:17:16;;;;;;;29.35;19.40;;;;;;;25.45;100.00;100145.13;4986269;28;20034;-81
2021/07/14 08:19:43;;;;;;;31.83;19.90;;;;;;;25.72;100.00;100139.44;4984103;28;20045;-79
2021/07/14 08:22:08;;;;;;;28.90;18.17;;;;;;;26.04;100.00;100144.09;4987107;28;20129;-79
2021/07/14 08:24:34;;;;;;;27.73;17.85;;;;;;;26.58;100.00;100140.06;4969712;28;20062;-78
2021/07/14 08:27:00;;;;;;;28.58;17.35;;;;;;;26.82;100.00;100140.75;4974160;28;20034;-79
2021/07/14 08:29:26;;;;;;;22.60;16.58;;;;;;;26.95;100.00;100146.75;4971715;28;20048;-77
2021/07/14 08:31:51;;;;;;;23.90;18.10;;;;;;;26.97;100.00;100146.25;4984991;28;20065;-77
2021/07/14 08:34:18;;;;;;;25.10;16.48;;;;;;;26.98;99.33;100148.56;4983291;28;20478;-77
2021/07/14 08:36:43;;;;;;;24.00;16.25;;;;;;;26.97;96.54;100146.25;4983551;28;20038;-77
2021/07/14 08:39:09;;;;;;;23.13;17.10;;;;;;;26.89;96.58;100148.66;4964015;28;20395;-78
2021/07/14 08:41:36;;;;;;;26.52;18.30;;;;;;;26.61;99.83;100142.66;4983440;28;20042;-76
2021/07/14 08:44:02;;;;;;;24.25;16.45;;;;;;;26.70;100.00;100141.81;4989701;28;20049;-77
2021/07/14 08:46:28;;;;;;;20.67;15.90;;;;;;;26.68;100.00;100147.78;4990762;28;20724;-76
2021/07/14 08:48:54;;;;;;;21.67;16.08;;;;;;;26.69;99.87;100135.50;4983258;28;20030;-76
2021/07/14 08:51:19;;;;;;;19.52;15.27;;;;;;;26.75;98.94;100146.69;4982043;28;20030;-76
2021/07/14 08:53:47;;;;;;;17.65;12.85;;;;;;;26.63;97.80;100140.19;4976483;28;20109;-76
2021/07/14 08:56:13;;;;;;;15.95;13.35;;;;;;;26.72;97.31;100137.34;4966002;28;20027;-77
2021/07/14 08:58:38;;;;;;;17.75;11.55;;;;;;;26.64;96.51;100151.97;4971800;28;20037;-77
2021/07/14 09:01:07;;;;;;;15.98;12.32;;;;;;;26.61;96.57;100152.94;4972774;28;20030;-77
2021/07/14 09:03:32;;;;;;;15.57;12.05;;;;;;;26.74;97.76;100145.91;4983721;28;20038;-77
2021/07/14 09:05:58;;;;;;;14.80;12.60;;;;;;;26.92;96.63;100147.72;4963221;28;20031;-77
2021/07/14 09:08:23;;;;;;;16.75;12.25;;;;;;;27.31;97.60;100153.84;4970616;28;20537;-77
2021/07/14 09:10:50;;;;;;;17.92;11.30;;;;;;;27.52;95.73;100142.34;4978643;28;20027;-77
2021/07/14 09:13:15;;;;;;;14.45;11.02;;;;;;;27.70;95.24;100149.59;4966585;28;20038;-77
2021/07/14 09:15:45;;;;;;;15.20;11.10;;;;;;;27.66;93.83;100151.81;4967321;28;20376;-77
2021/07/14 09:18:15;;;;;;;14.80;10.55;;;;;;;27.63;92.86;100159.09;4971393;28;20019;-76
2021/07/14 09:20:42;;;;;;;14.70;11.23;;;;;;;27.82;94.47;100156.78;4970015;28;20054;-77
2021/07/14 09:23:10;;;;;;;15.75;10.40;;;;;;;28.03;93.88;100158.31;4985095;28;20057;-77
2021/07/14 09:25:46;;;;;;;15.82;10.93;;;;;;;28.21;93.63;100151.72;4980391;28;20041;-77
2021/07/14 09:28:14;;;;;;;11.85;10.55;;;;;;;28.44;89.37;100156.25;4963501;28;20518;-76
2021/07/14 09:30:40;;;;;;;11.10;9.68;;;;;;;28.52;90.96;100157.31;4974790;28;20561;-77
2021/07/14 09:33:08;;;;;;;11.70;10.23;;;;;;;28.52;87.28;100147.00;4988550;28;21355;-78
2021/07/14 09:35:36;;;;;;;14.63;10.57;;;;;;;28.45;87.73;100150.19;4983074;28;20042;-78
2021/07/14 09:38:14;;;;;;;13.55;10.20;;;;;;;28.34;87.88;100152.09;4991479;28;20031;-77
2021/07/14 09:40:42;;;;;;;12.35;10.63;;;;;;;28.28;86.70;100152.06;4973375;28;20054;-77
2021/07/14 09:43:16;;;;;;;15.27;10.90;;;;;;;27.81;84.94;100135.13;4971627;28;20034;-76
2021/07/14 09:45:46;;;;;;;13.63;11.05;;;;;;;27.85;88.97;100135.69;4972022;28;20039;-76
2021/07/14 09:48:23;;;;;;;13.40;11.20;;;;;;;28.01;88.67;100127.59;4980466;28;20058;-76
2021/07/14 09:50:56;;;;;;;14.10;11.02;;;;;;;28.03;88.83;100127.84;4970428;28;20039;-77
2021/07/14 09:53:24;;;;;;;14.75;10.85;;;;;;;28.14;89.56;100121.69;4984049;28;20126;-77
2021/07/14 09:55:57;;;;;;;14.30;11.07;;;;;;;28.17;89.91;100115.16;4968354;28;20038;-77
2021/07/14 09:58:28;;;;;;;13.38;10.52;;;;;;;28.22;90.25;100120.00;4965848;28;20073;-77
2021/07/14 10:00:59;;;;;;;16.05;10.38;;;;;;;28.31;88.40;100123.38;4957475;28;20043;-77
2021/07/14 10:03:31;;;;;;;16.15;10.18;;;;;;;28.24;86.88;100131.38;4962386;28;20050;-75
2021/07/14 10:06:04;;;;;;;11.93;10.18;;;;;;;28.37;86.52;100134.50;4979254;28;20603;-76
2021/07/14 10:08:30;;;;;;;13.82;9.68;;;;;;;28.30;87.13;100132.19;4970013;28;20027;-77
2021/07/14 10:11:17;;;;;;;12.68;10.07;;;;;;;28.30;84.83;100138.47;4977422;28;20501;-77
2021/07/14 10:14:03;;;;;;;15.32;10.60;;;;;;;28.26;85.78;100137.19;4969344;28;20031;-76
2021/07/14 10:16:40;;;;;;;12.90;10.60;;;;;;;28.51;85.92;100142.69;4969107;28;20093;-77
2021/07/14 10:19:06;;;;;;;13.88;10.82;;;;;;;28.59;85.27;100143.03;4984309;28;20027;-77
2021/07/14 10:21:35;;;;;;;15.82;11.05;;;;;;;28.60;85.01;100149.34;4985836;28;20022;-77
2021/07/14 10:24:01;;;;;;;12.07;9.93;;;;;;;28.49;85.72;100145.19;4964893;28;20034;-77
2021/07/14 10:26:27;;;;;;;13.02;10.88;;;;;;;28.64;85.03;100152.66;4969373;28;20039;-77
2021/07/14 10:28:54;;;;;;;15.90;11.10;;;;;;;28.72;84.84;100150.97;4962604;28;20066;-77
2021/07/14 10:31:22;;;;;;;17.42;11.10;;;;;;;28.87;85.10;100144.06;4952694;28;20035;-76
2021/07/14 10:33:52;;;;;;;12.38;10.25;;;;;;;28.84;84.99;100144.28;4962375;28;20533;-77
2021/07/14 10:36:28;;;;;;;15.30;11.45;;;;;;;28.92;84.62;100137.03;4966238;28;20031;-76
2021/07/14 10:38:59;;;;;;;16.52;10.45;;;;;;;28.97;83.72;100134.28;4976409;28;20487;-77
2021/07/14 10:41:29;;;;;;;13.90;10.82;;;;;;;29.01;85.08;100134.06;4980745;28;20049;-77
2021/07/14 10:43:55;;;;;;;19.73;10.35;;;;;;;29.34;83.77;100137.84;4962304;28;20431;-77
2021/07/14 10:46:23;;;;;;;12.02;9.80;;;;;;;29.61;83.31;100133.69;4966612;28;20019;-77
2021/07/14 10:48:50;;;;;;;18.90;10.30;;;;;;;29.72;82.46;100124.66;4979318;28;20134;-77
2021/07/14 10:51:17;;;;;;;12.15;10.27;;;;;;;29.65;80.00;100125.09;4968434;28;20509;-77
2021/07/14 10:53:46;;;;;;;13.35;11.05;;;;;;;29.61;80.74;100122.56;4966347;28;20559;-77
2021/07/14 10:56:15;;;;;;;13.82;11.18;;;;;;;29.34;79.86;100134.31;4969991;28;20110;-77
2021/07/14 10:58:42;;;;;;;13.35;10.90;;;;;;;29.15;82.16;100133.91;4974919;28;20033;-77
2021/07/14 11:01:11;;;;;;;13.65;10.55;;;;;;;29.01;83.64;100129.28;4975186;28;20170;-78
2021/07/14 11:03:40;;;;;;;15.32;11.30;;;;;;;28.99;83.42;100137.34;4986213;28;20043;-76
2021/07/14 11:06:09;;;;;;;15.13;11.63;;;;;;;28.97;85.07;100131.53;4969701;28;20036;-78
2021/07/14 11:08:48;;;;;;;13.38;11.52;;;;;;;29.20;85.84;100138.00;4979097;28;20092;-78
2021/07/14 11:11:18;;;;;;;13.02;11.20;;;;;;;29.42;84.35;100130.56;4989114;28;20066;-76
2021/07/14 11:14:04;;;;;;;13.02;10.20;;;;;;;29.98;83.70;100114.91;4977805;28;20454;-77
2021/07/14 11:16:37;;;;;;;11.82;10.27;;;;;;;30.44;80.90;100120.06;4971262;28;20108;-78
2021/07/14 11:19:07;;;;;;;16.48;10.35;;;;;;;30.85;80.21;100125.91;4983569;28;20031;-78
2021/07/14 11:21:51;;;;;;;12.00;10.32;;;;;;;30.92;77.37;100117.03;4967893;28;20062;-77